sensor_id;sensor_type;location;lat;lon;timestamp;P1;P2;P0
83484;PMS5003;73420;32.678;-85.380;2024-02-23T00:00:21;18;18;
83484;PMS5003;73420;32.678;-85.380;2024-02-23T00:02:46;18;17;
83484;PMS5003;73420;32.678;-85.380;2024-02-23T00:05:12;18;18;
83484;PMS5003;73420;32.678;-85.380;2024-02-23T00:07:37;19;18;
83484;PMS5003;73420;32.678;-85.380;2024-02-23T00:10:02;18;18;
83484;PMS5003;73420;32.678;-85.380;2024-02-23T00:12:27;18;18;
83484;PMS5003;73420;32.678;-85.380;2024-02-23T00:14:53;17;17;
83484;PMS5003;73420;32.678;-85.380;2024-02-23T00:17:18;18;18;
83484;PMS5003;73420;32.678;-85.380;2024-02-23T00:19:45;22;22;
83484;PMS5003;73420;32.678;-85.380;2024-02-23T00:22:09;25;25;
83484;PMS5003;73420;32.678;-85.380;2024-02-23T00:24:35;21;21;
83484;PMS5003;73420;32.678;-85.380;2024-02-23T00:27:00;19;19;
83484;PMS5003;73420;32.678;-85.380;2024-02-23T00:29:29;23;22;
83484;PMS5003;73420;32.678;-85.380;2024-02-23T00:31:51;23;22;
83484;PMS5003;73420;32.678;-85.380;2024-02-23T00:34:16;19;18;
83484;PMS5003;73420;32.678;-85.380;2024-02-23T00:36:42;20;19;
83484;PMS5003;73420;32.678;-85.380;2024-02-23T00:39:07;21;21;
83484;PMS5003;73420;32.678;-85.380;2024-02-23T00:41:37;19;18;
83484;PMS5003;73420;32.678;-85.380;2024-02-23T00:43:58;22;22;
83484;PMS5003;73420;32.678;-85.380;2024-02-23T00:46:23;19;19;
83484;PMS5003;73420;32.678;-85.380;2024-02-23T00:48:49;21;20;
83484;PMS5003;73420;32.678;-85.380;2024-02-23T00:51:14;20;20;
83484;PMS5003;73420;32.678;-85.380;2024-02-23T00:53:39;21;21;
83484;PMS5003;73420;32.678;-85.380;2024-02-23T00:56:05;16;16;
83484;PMS5003;73420;32.678;-85.380;2024-02-23T00:58:30;21;21;
83484;PMS5003;73420;32.678;-85.380;2024-02-23T01:00:56;19;19;
83484;PMS5003;73420;32.678;-85.380;2024-02-23T01:03:21;18;17;
83484;PMS5003;73420;32.678;-85.380;2024-02-23T01:05:47;20;20;
83484;PMS5003;73420;32.678;-85.380;2024-02-23T01:08:11;20;20;
83484;PMS5003;73420;32.678;-85.380;2024-02-23T01:10:37;19;19;
83484;PMS5003;73420;32.678;-85.380;2024-02-23T01:13:02;21;21;
83484;PMS5003;73420;32.678;-85.380;2024-02-23T01:15:27;21;19;
83484;PMS5003;73420;32.678;-85.380;2024-02-23T01:17:53;18;18;
83484;PMS5003;73420;32.678;-85.380;2024-02-23T01:20:18;20;19;
83484;PMS5003;73420;32.678;-85.380;2024-02-23T01:22:43;22;21;
83484;PMS5003;73420;32.678;-85.380;2024-02-23T01:25:08;22;21;
83484;PMS5003;73420;32.678;-85.380;2024-02-23T01:27:34;21;20;
83484;PMS5003;73420;32.678;-85.380;2024-02-23T01:29:59;23;23;
83484;PMS5003;73420;32.678;-85.380;2024-02-23T01:32:25;26;24;
83484;PMS5003;73420;32.678;-85.380;2024-02-23T01:34:50;21;21;
83484;PMS5003;73420;32.678;-85.380;2024-02-23T01:37:15;22;21;
83484;PMS5003;73420;32.678;-85.380;2024-02-23T01:39:40;20;20;
83484;PMS5003;73420;32.678;-85.380;2024-02-23T01:42:06;24;24;
83484;PMS5003;73420;32.678;-85.380;2024-02-23T01:44:31;22;21;
83484;PMS5003;73420;32.678;-85.380;2024-02-23T01:46:56;22;21;
83484;PMS5003;73420;32.678;-85.380;2024-02-23T01:49:21;22;22;
83484;PMS5003;73420;32.678;-85.380;2024-02-23T01:51:47;24;24;
83484;PMS5003;73420;32.678;-85.380;2024-02-23T01:54:16;24;24;
83484;PMS5003;73420;32.678;-85.380;2024-02-23T01:56:37;22;22;
83484;PMS5003;73420;32.678;-85.380;2024-02-23T01:59:03;24;24;
83484;PMS5003;73420;32.678;-85.380;2024-02-23T02:01:29;23;23;
83484;PMS5003;73420;32.678;-85.380;2024-02-23T02:03:54;24;24;
83484;PMS5003;73420;32.678;-85.380;2024-02-23T02:06:22;22;21;
83484;PMS5003;73420;32.678;-85.380;2024-02-23T02:08:45;24;19;
83484;PMS5003;73420;32.678;-85.380;2024-02-23T02:11:11;22;21;
83484;PMS5003;73420;32.678;-85.380;2024-02-23T02:13:36;20;18;
83484;PMS5003;73420;32.678;-85.380;2024-02-23T02:16:02;22;22;
83484;PMS5003;73420;32.678;-85.380;2024-02-23T02:18:33;20;20;
83484;PMS5003;73420;32.678;-85.380;2024-02-23T02:20:53;25;25;
83484;PMS5003;73420;32.678;-85.380;2024-02-23T02:23:18;22;21;
83484;PMS5003;73420;32.678;-85.380;2024-02-23T02:25:43;24;24;
83484;PMS5003;73420;32.678;-85.380;2024-02-23T02:28:09;25;25;
83484;PMS5003;73420;32.678;-85.380;2024-02-23T02:30:34;23;23;
83484;PMS5003;73420;32.678;-85.380;2024-02-23T02:32:59;27;27;
83484;PMS5003;73420;32.678;-85.380;2024-02-23T02:35:25;22;21;
83484;PMS5003;73420;32.678;-85.380;2024-02-23T02:37:50;27;25;
83484;PMS5003;73420;32.678;-85.380;2024-02-23T02:40:16;27;26;
83484;PMS5003;73420;32.678;-85.380;2024-02-23T02:42:43;27;25;
83484;PMS5003;73420;32.678;-85.380;2024-02-23T02:45:07;32;31;
83484;PMS5003;73420;32.678;-85.380;2024-02-23T02:47:33;27;26;
83484;PMS5003;73420;32.678;-85.380;2024-02-23T02:49:58;28;27;
83484;PMS5003;73420;32.678;-85.380;2024-02-23T02:52:23;27;26;
83484;PMS5003;73420;32.678;-85.380;2024-02-23T02:54:49;26;26;
83484;PMS5003;73420;32.678;-85.380;2024-02-23T02:57:14;27;25;
83484;PMS5003;73420;32.678;-85.380;2024-02-23T02:59:40;25;25;
83484;PMS5003;73420;32.678;-85.380;2024-02-23T03:02:05;34;32;
83484;PMS5003;73420;32.678;-85.380;2024-02-23T03:04:31;26;26;
83484;PMS5003;73420;32.678;-85.380;2024-02-23T03:06:58;31;30;
83484;PMS5003;73420;32.678;-85.380;2024-02-23T03:09:21;28;28;
83484;PMS5003;73420;32.678;-85.380;2024-02-23T03:11:47;29;29;
83484;PMS5003;73420;32.678;-85.380;2024-02-23T03:14:13;26;25;
83484;PMS5003;73420;32.678;-85.380;2024-02-23T03:16:39;29;28;
83484;PMS5003;73420;32.678;-85.380;2024-02-23T03:19:10;32;29;
83484;PMS5003;73420;32.678;-85.380;2024-02-23T03:21:30;29;29;
83484;PMS5003;73420;32.678;-85.380;2024-02-23T03:23:55;26;25;
83484;PMS5003;73420;32.678;-85.380;2024-02-23T03:26:21;25;24;
83484;PMS5003;73420;32.678;-85.380;2024-02-23T03:28:46;32;30;
83484;PMS5003;73420;32.678;-85.380;2024-02-23T03:31:12;25;25;
83484;PMS5003;73420;32.678;-85.380;2024-02-23T03:33:36;25;24;
83484;PMS5003;73420;32.678;-85.380;2024-02-23T03:36:03;25;25;
83484;PMS5003;73420;32.678;-85.380;2024-02-23T03:38:27;29;29;
83484;PMS5003;73420;32.678;-85.380;2024-02-23T03:40:53;28;26;
83484;PMS5003;73420;32.678;-85.380;2024-02-23T03:43:19;30;29;
83484;PMS5003;73420;32.678;-85.380;2024-02-23T03:45:44;30;29;
83484;PMS5003;73420;32.678;-85.380;2024-02-23T03:48:10;30;29;
83484;PMS5003;73420;32.678;-85.380;2024-02-23T03:50:35;29;28;
83484;PMS5003;73420;32.678;-85.380;2024-02-23T03:53:03;31;30;
83484;PMS5003;73420;32.678;-85.380;2024-02-23T03:55:26;29;28;
83484;PMS5003;73420;32.678;-85.380;2024-02-23T03:57:52;26;26;
83484;PMS5003;73420;32.678;-85.380;2024-02-23T04:00:17;28;28;
83484;PMS5003;73420;32.678;-85.380;2024-02-23T04:02:42;26;26;
83484;PMS5003;73420;32.678;-85.380;2024-02-23T04:05:08;25;25;
83484;PMS5003;73420;32.678;-85.380;2024-02-23T04:07:37;27;27;
83484;PMS5003;73420;32.678;-85.380;2024-02-23T04:09:59;30;28;
83484;PMS5003;73420;32.678;-85.380;2024-02-23T04:12:24;28;27;
83484;PMS5003;73420;32.678;-85.380;2024-02-23T04:14:49;26;25;
83484;PMS5003;73420;32.678;-85.380;2024-02-23T04:17:15;28;26;
83484;PMS5003;73420;32.678;-85.380;2024-02-23T04:19:41;30;28;
83484;PMS5003;73420;32.678;-85.380;2024-02-23T04:22:06;26;24;
83484;PMS5003;73420;32.678;-85.380;2024-02-23T04:24:31;27;27;
83484;PMS5003;73420;32.678;-85.380;2024-02-23T04:26:56;27;25;
83484;PMS5003;73420;32.678;-85.380;2024-02-23T04:29:22;26;24;
83484;PMS5003;73420;32.678;-85.380;2024-02-23T04:31:48;30;28;
83484;PMS5003;73420;32.678;-85.380;2024-02-23T04:34:14;26;26;
83484;PMS5003;73420;32.678;-85.380;2024-02-23T04:36:38;23;23;
83484;PMS5003;73420;32.678;-85.380;2024-02-23T04:39:04;31;30;
83484;PMS5003;73420;32.678;-85.380;2024-02-23T04:41:29;28;28;
83484;PMS5003;73420;32.678;-85.380;2024-02-23T04:43:54;28;27;
83484;PMS5003;73420;32.678;-85.380;2024-02-23T04:46:19;27;27;
83484;PMS5003;73420;32.678;-85.380;2024-02-23T04:48:44;27;26;
83484;PMS5003;73420;32.678;-85.380;2024-02-23T04:51:10;25;24;
83484;PMS5003;73420;32.678;-85.380;2024-02-23T04:53:36;25;25;
83484;PMS5003;73420;32.678;-85.380;2024-02-23T04:56:02;27;25;
83484;PMS5003;73420;32.678;-85.380;2024-02-23T04:58:27;26;26;
83484;PMS5003;73420;32.678;-85.380;2024-02-23T05:00:52;26;26;
83484;PMS5003;73420;32.678;-85.380;2024-02-23T05:03:17;26;26;
83484;PMS5003;73420;32.678;-85.380;2024-02-23T05:05:42;25;23;
83484;PMS5003;73420;32.678;-85.380;2024-02-23T05:08:08;22;22;
83484;PMS5003;73420;32.678;-85.380;2024-02-23T05:10:33;28;26;
83484;PMS5003;73420;32.678;-85.380;2024-02-23T05:12:58;31;31;
83484;PMS5003;73420;32.678;-85.380;2024-02-23T05:15:24;27;24;
83484;PMS5003;73420;32.678;-85.380;2024-02-23T05:17:49;27;26;
83484;PMS5003;73420;32.678;-85.380;2024-02-23T05:20:15;22;22;
83484;PMS5003;73420;32.678;-85.380;2024-02-23T05:22:41;21;21;
83484;PMS5003;73420;32.678;-85.380;2024-02-23T05:25:06;27;26;
83484;PMS5003;73420;32.678;-85.380;2024-02-23T05:27:31;25;24;
83484;PMS5003;73420;32.678;-85.380;2024-02-23T05:29:57;26;26;
83484;PMS5003;73420;32.678;-85.380;2024-02-23T05:32:23;22;22;
83484;PMS5003;73420;32.678;-85.380;2024-02-23T05:34:48;25;25;
83484;PMS5003;73420;32.678;-85.380;2024-02-23T05:37:13;27;26;
83484;PMS5003;73420;32.678;-85.380;2024-02-23T05:39:39;23;22;
83484;PMS5003;73420;32.678;-85.380;2024-02-23T05:42:04;29;29;
83484;PMS5003;73420;32.678;-85.380;2024-02-23T05:44:30;27;25;
83484;PMS5003;73420;32.678;-85.380;2024-02-23T05:46:55;33;33;
83484;PMS5003;73420;32.678;-85.380;2024-02-23T05:49:21;31;30;
83484;PMS5003;73420;32.678;-85.380;2024-02-23T05:51:46;24;24;
83484;PMS5003;73420;32.678;-85.380;2024-02-23T05:54:11;27;26;
83484;PMS5003;73420;32.678;-85.380;2024-02-23T05:56:37;32;32;
83484;PMS5003;73420;32.678;-85.380;2024-02-23T05:59:02;30;30;
83484;PMS5003;73420;32.678;-85.380;2024-02-23T06:01:28;38;34;
83484;PMS5003;73420;32.678;-85.380;2024-02-23T06:03:53;35;34;
83484;PMS5003;73420;32.678;-85.380;2024-02-23T06:06:19;31;31;
83484;PMS5003;73420;32.678;-85.380;2024-02-23T06:08:49;36;34;
83484;PMS5003;73420;32.678;-85.380;2024-02-23T06:11:10;32;31;
83484;PMS5003;73420;32.678;-85.380;2024-02-23T06:13:35;34;33;
83484;PMS5003;73420;32.678;-85.380;2024-02-23T06:16:00;35;34;
83484;PMS5003;73420;32.678;-85.380;2024-02-23T06:18:28;35;33;
83484;PMS5003;73420;32.678;-85.380;2024-02-23T06:20:53;37;35;
83484;PMS5003;73420;32.678;-85.380;2024-02-23T06:23:17;39;36;
83484;PMS5003;73420;32.678;-85.380;2024-02-23T06:25:42;40;39;
83484;PMS5003;73420;32.678;-85.380;2024-02-23T06:28:08;39;36;
83484;PMS5003;73420;32.678;-85.380;2024-02-23T06:30:33;34;32;
83484;PMS5003;73420;32.678;-85.380;2024-02-23T06:33:03;36;35;
83484;PMS5003;73420;32.678;-85.380;2024-02-23T06:35:24;37;36;
83484;PMS5003;73420;32.678;-85.380;2024-02-23T06:37:50;39;39;
83484;PMS5003;73420;32.678;-85.380;2024-02-23T06:40:15;41;40;
83484;PMS5003;73420;32.678;-85.380;2024-02-23T06:42:41;40;39;
83484;PMS5003;73420;32.678;-85.380;2024-02-23T06:45:07;44;43;
83484;PMS5003;73420;32.678;-85.380;2024-02-23T06:47:32;37;36;
83484;PMS5003;73420;32.678;-85.380;2024-02-23T06:49:58;38;36;
83484;PMS5003;73420;32.678;-85.380;2024-02-23T06:52:23;34;34;
83484;PMS5003;73420;32.678;-85.380;2024-02-23T06:54:49;37;36;
83484;PMS5003;73420;32.678;-85.380;2024-02-23T06:57:18;35;34;
83484;PMS5003;73420;32.678;-85.380;2024-02-23T06:59:39;40;39;
83484;PMS5003;73420;32.678;-85.380;2024-02-23T07:02:05;42;41;
83484;PMS5003;73420;32.678;-85.380;2024-02-23T07:04:31;46;42;
83484;PMS5003;73420;32.678;-85.380;2024-02-23T07:06:56;38;37;
83484;PMS5003;73420;32.678;-85.380;2024-02-23T07:09:22;35;34;
83484;PMS5003;73420;32.678;-85.380;2024-02-23T07:11:47;39;39;
83484;PMS5003;73420;32.678;-85.380;2024-02-23T07:14:12;33;33;
83484;PMS5003;73420;32.678;-85.380;2024-02-23T07:16:38;37;36;
83484;PMS5003;73420;32.678;-85.380;2024-02-23T07:19:03;41;38;
83484;PMS5003;73420;32.678;-85.380;2024-02-23T07:21:29;42;38;
83484;PMS5003;73420;32.678;-85.380;2024-02-23T07:23:54;36;36;
83484;PMS5003;73420;32.678;-85.380;2024-02-23T07:26:19;39;36;
83484;PMS5003;73420;32.678;-85.380;2024-02-23T07:28:45;30;29;
83484;PMS5003;73420;32.678;-85.380;2024-02-23T07:31:11;42;39;
83484;PMS5003;73420;32.678;-85.380;2024-02-23T07:33:38;29;29;
83484;PMS5003;73420;32.678;-85.380;2024-02-23T07:36:02;33;32;
83484;PMS5003;73420;32.678;-85.380;2024-02-23T07:38:27;31;30;
83484;PMS5003;73420;32.678;-85.380;2024-02-23T07:40:52;27;27;
83484;PMS5003;73420;32.678;-85.380;2024-02-23T07:43:18;35;32;
83484;PMS5003;73420;32.678;-85.380;2024-02-23T07:45:47;31;30;
83484;PMS5003;73420;32.678;-85.380;2024-02-23T07:48:08;45;41;
83484;PMS5003;73420;32.678;-85.380;2024-02-23T07:50:34;36;33;
83484;PMS5003;73420;32.678;-85.380;2024-02-23T07:52:59;32;31;
83484;PMS5003;73420;32.678;-85.380;2024-02-23T07:55:24;25;25;
83484;PMS5003;73420;32.678;-85.380;2024-02-23T07:57:50;24;24;
83484;PMS5003;73420;32.678;-85.380;2024-02-23T08:00:15;25;25;
83484;PMS5003;73420;32.678;-85.380;2024-02-23T08:02:40;26;26;
83484;PMS5003;73420;32.678;-85.380;2024-02-23T08:05:06;20;19;
83484;PMS5003;73420;32.678;-85.380;2024-02-23T08:07:31;17;16;
83484;PMS5003;73420;32.678;-85.380;2024-02-23T08:09:57;24;23;
83484;PMS5003;73420;32.678;-85.380;2024-02-23T08:12:22;17;16;
83484;PMS5003;73420;32.678;-85.380;2024-02-23T08:14:47;18;17;
83484;PMS5003;73420;32.678;-85.380;2024-02-23T08:17:12;16;15;
83484;PMS5003;73420;32.678;-85.380;2024-02-23T08:19:37;15;15;
83484;PMS5003;73420;32.678;-85.380;2024-02-23T08:22:04;16;14;
83484;PMS5003;73420;32.678;-85.380;2024-02-23T08:24:28;14;14;
83484;PMS5003;73420;32.678;-85.380;2024-02-23T08:26:53;15;14;
83484;PMS5003;73420;32.678;-85.380;2024-02-23T08:29:19;15;14;
83484;PMS5003;73420;32.678;-85.380;2024-02-23T08:31:44;15;14;
83484;PMS5003;73420;32.678;-85.380;2024-02-23T08:34:09;18;14;
83484;PMS5003;73420;32.678;-85.380;2024-02-23T08:36:34;13;12;
83484;PMS5003;73420;32.678;-85.380;2024-02-23T08:39:00;14;14;
83484;PMS5003;73420;32.678;-85.380;2024-02-23T08:41:25;15;13;
83484;PMS5003;73420;32.678;-85.380;2024-02-23T08:43:51;14;14;
83484;PMS5003;73420;32.678;-85.380;2024-02-23T08:46:20;16;15;
83484;PMS5003;73420;32.678;-85.380;2024-02-23T08:48:42;19;17;
83484;PMS5003;73420;32.678;-85.380;2024-02-23T08:51:07;17;14;
83484;PMS5003;73420;32.678;-85.380;2024-02-23T08:53:33;12;12;
83484;PMS5003;73420;32.678;-85.380;2024-02-23T08:55:58;11;11;
83484;PMS5003;73420;32.678;-85.380;2024-02-23T08:58:24;18;16;
83484;PMS5003;73420;32.678;-85.380;2024-02-23T09:00:49;13;12;
83484;PMS5003;73420;32.678;-85.380;2024-02-23T09:03:14;12;12;
83484;PMS5003;73420;32.678;-85.380;2024-02-23T09:05:39;14;13;
83484;PMS5003;73420;32.678;-85.380;2024-02-23T09:08:05;14;13;
83484;PMS5003;73420;32.678;-85.380;2024-02-23T09:10:31;15;15;
83484;PMS5003;73420;32.678;-85.380;2024-02-23T09:12:55;15;14;
83484;PMS5003;73420;32.678;-85.380;2024-02-23T09:15:21;14;14;
83484;PMS5003;73420;32.678;-85.380;2024-02-23T09:17:45;15;15;
83484;PMS5003;73420;32.678;-85.380;2024-02-23T09:20:11;13;13;
83484;PMS5003;73420;32.678;-85.380;2024-02-23T09:22:38;13;13;
83484;PMS5003;73420;32.678;-85.380;2024-02-23T09:25:02;14;14;
83484;PMS5003;73420;32.678;-85.380;2024-02-23T09:27:27;13;13;
83484;PMS5003;73420;32.678;-85.380;2024-02-23T09:29:53;12;12;
83484;PMS5003;73420;32.678;-85.380;2024-02-23T09:32:18;14;13;
83484;PMS5003;73420;32.678;-85.380;2024-02-23T09:34:47;13;12;
83484;PMS5003;73420;32.678;-85.380;2024-02-23T09:37:09;13;12;
83484;PMS5003;73420;32.678;-85.380;2024-02-23T09:39:34;12;12;
83484;PMS5003;73420;32.678;-85.380;2024-02-23T09:42:00;11;11;
83484;PMS5003;73420;32.678;-85.380;2024-02-23T09:44:26;10;10;
83484;PMS5003;73420;32.678;-85.380;2024-02-23T09:46:53;12;11;
83484;PMS5003;73420;32.678;-85.380;2024-02-23T09:49:16;15;14;
83484;PMS5003;73420;32.678;-85.380;2024-02-23T09:51:42;11;11;
83484;PMS5003;73420;32.678;-85.380;2024-02-23T09:54:07;11;10;
83484;PMS5003;73420;32.678;-85.380;2024-02-23T09:56:32;14;11;
83484;PMS5003;73420;32.678;-85.380;2024-02-23T09:58:59;11;11;
83484;PMS5003;73420;32.678;-85.380;2024-02-23T10:01:24;10;10;
83484;PMS5003;73420;32.678;-85.380;2024-02-23T10:03:48;14;13;
83484;PMS5003;73420;32.678;-85.380;2024-02-23T10:06:14;12;10;
83484;PMS5003;73420;32.678;-85.380;2024-02-23T10:08:39;12;12;
83484;PMS5003;73420;32.678;-85.380;2024-02-23T10:11:05;11;11;
83484;PMS5003;73420;32.678;-85.380;2024-02-23T10:13:30;11;10;
83484;PMS5003;73420;32.678;-85.380;2024-02-23T10:15:55;14;11;
83484;PMS5003;73420;32.678;-85.380;2024-02-23T10:18:21;11;10;
83484;PMS5003;73420;32.678;-85.380;2024-02-23T10:20:46;13;12;
83484;PMS5003;73420;32.678;-85.380;2024-02-23T10:23:12;13;11;
83484;PMS5003;73420;32.678;-85.380;2024-02-23T10:25:37;13;11;
83484;PMS5003;73420;32.678;-85.380;2024-02-23T10:28:02;12;12;
83484;PMS5003;73420;32.678;-85.380;2024-02-23T10:30:27;9;9;
83484;PMS5003;73420;32.678;-85.380;2024-02-23T10:32:55;12;11;
83484;PMS5003;73420;32.678;-85.380;2024-02-23T10:35:18;14;12;
83484;PMS5003;73420;32.678;-85.380;2024-02-23T10:37:44;13;12;
83484;PMS5003;73420;32.678;-85.380;2024-02-23T10:40:09;16;15;
83484;PMS5003;73420;32.678;-85.380;2024-02-23T10:42:35;16;16;
83484;PMS5003;73420;32.678;-85.380;2024-02-23T10:45:00;15;14;
83484;PMS5003;73420;32.678;-85.380;2024-02-23T10:47:26;15;13;
83484;PMS5003;73420;32.678;-85.380;2024-02-23T10:49:51;13;13;
83484;PMS5003;73420;32.678;-85.380;2024-02-23T10:52:16;18;18;
83484;PMS5003;73420;32.678;-85.380;2024-02-23T10:54:41;14;12;
83484;PMS5003;73420;32.678;-85.380;2024-02-23T10:57:07;6;5;
83484;PMS5003;73420;32.678;-85.380;2024-02-23T10:59:32;4;4;
83484;PMS5003;73420;32.678;-85.380;2024-02-23T11:01:57;7;6;
83484;PMS5003;73420;32.678;-85.380;2024-02-23T11:04:23;5;5;
83484;PMS5003;73420;32.678;-85.380;2024-02-23T11:06:49;7;6;
83484;PMS5003;73420;32.678;-85.380;2024-02-23T11:09:14;5;5;
83484;PMS5003;73420;32.678;-85.380;2024-02-23T11:14:07;5;5;
83484;PMS5003;73420;32.678;-85.380;2024-02-23T11:16:31;2;2;
83484;PMS5003;73420;32.678;-85.380;2024-02-23T11:21:21;4;4;
83484;PMS5003;73420;32.678;-85.380;2024-02-23T11:23:50;4;4;
83484;PMS5003;73420;32.678;-85.380;2024-02-23T11:26:12;3;3;
83484;PMS5003;73420;32.678;-85.380;2024-02-23T11:28:42;5;5;
83484;PMS5003;73420;32.678;-85.380;2024-02-23T11:31:05;5;4;
83484;PMS5003;73420;32.678;-85.380;2024-02-23T11:33:29;3;3;
83484;PMS5003;73420;32.678;-85.380;2024-02-23T11:38:20;5;4;
83484;PMS5003;73420;32.678;-85.380;2024-02-23T11:40:45;3;3;
83484;PMS5003;73420;32.678;-85.380;2024-02-23T11:43:10;4;4;
83484;PMS5003;73420;32.678;-85.380;2024-02-23T11:45:36;5;5;
83484;PMS5003;73420;32.678;-85.380;2024-02-23T11:48:05;4;4;
83484;PMS5003;73420;32.678;-85.380;2024-02-23T11:50:27;4;4;
83484;PMS5003;73420;32.678;-85.380;2024-02-23T11:52:52;4;4;
83484;PMS5003;73420;32.678;-85.380;2024-02-23T11:55:18;5;5;
83484;PMS5003;73420;32.678;-85.380;2024-02-23T11:57:43;5;5;
83484;PMS5003;73420;32.678;-85.380;2024-02-23T12:00:09;3;3;
83484;PMS5003;73420;32.678;-85.380;2024-02-23T12:02:34;4;4;
83484;PMS5003;73420;32.678;-85.380;2024-02-23T12:05:00;4;4;
83484;PMS5003;73420;32.678;-85.380;2024-02-23T12:07:25;4;4;
83484;PMS5003;73420;32.678;-85.380;2024-02-23T12:09:50;4;4;
83484;PMS5003;73420;32.678;-85.380;2024-02-23T12:12:16;3;3;
83484;PMS5003;73420;32.678;-85.380;2024-02-23T12:14:41;5;3;
83484;PMS5003;73420;32.678;-85.380;2024-02-23T12:17:07;4;3;
83484;PMS5003;73420;32.678;-85.380;2024-02-23T12:19:32;3;3;
83484;PMS5003;73420;32.678;-85.380;2024-02-23T12:21:59;5;5;
83484;PMS5003;73420;32.678;-85.380;2024-02-23T12:24:25;4;4;
83484;PMS5003;73420;32.678;-85.380;2024-02-23T12:26:53;4;4;
83484;PMS5003;73420;32.678;-85.380;2024-02-23T12:29:14;4;4;
83484;PMS5003;73420;32.678;-85.380;2024-02-23T12:31:40;4;4;
83484;PMS5003;73420;32.678;-85.380;2024-02-23T12:34:05;3;3;
83484;PMS5003;73420;32.678;-85.380;2024-02-23T12:36:31;3;3;
83484;PMS5003;73420;32.678;-85.380;2024-02-23T12:38:56;4;3;
83484;PMS5003;73420;32.678;-85.380;2024-02-23T12:41:22;4;4;
83484;PMS5003;73420;32.678;-85.380;2024-02-23T12:43:47;5;4;
83484;PMS5003;73420;32.678;-85.380;2024-02-23T12:46:13;4;4;
83484;PMS5003;73420;32.678;-85.380;2024-02-23T12:48:38;4;4;
83484;PMS5003;73420;32.678;-85.380;2024-02-23T12:51:04;4;4;
83484;PMS5003;73420;32.678;-85.380;2024-02-23T12:53:31;6;5;
83484;PMS5003;73420;32.678;-85.380;2024-02-23T12:55:54;2;2;
83484;PMS5003;73420;32.678;-85.380;2024-02-23T12:58:20;3;3;
83484;PMS5003;73420;32.678;-85.380;2024-02-23T13:00:46;3;3;
83484;PMS5003;73420;32.678;-85.380;2024-02-23T13:03:11;4;4;
83484;PMS5003;73420;32.678;-85.380;2024-02-23T13:05:36;3;3;
83484;PMS5003;73420;32.678;-85.380;2024-02-23T13:08:02;3;3;
83484;PMS5003;73420;32.678;-85.380;2024-02-23T13:10:27;2;2;
83484;PMS5003;73420;32.678;-85.380;2024-02-23T13:12:54;4;3;
83484;PMS5003;73420;32.678;-85.380;2024-02-23T13:15:18;2;2;
83484;PMS5003;73420;32.678;-85.380;2024-02-23T13:17:43;5;4;
83484;PMS5003;73420;32.678;-85.380;2024-02-23T13:20:09;2;2;
83484;PMS5003;73420;32.678;-85.380;2024-02-23T13:22:34;2;2;
83484;PMS5003;73420;32.678;-85.380;2024-02-23T13:25:00;3;3;
83484;PMS5003;73420;32.678;-85.380;2024-02-23T13:27:25;2;2;
83484;PMS5003;73420;32.678;-85.380;2024-02-23T13:29:50;3;3;
83484;PMS5003;73420;32.678;-85.380;2024-02-23T13:32:16;4;4;
83484;PMS5003;73420;32.678;-85.380;2024-02-23T13:34:41;3;3;
83484;PMS5003;73420;32.678;-85.380;2024-02-23T13:37:07;3;3;
83484;PMS5003;73420;32.678;-85.380;2024-02-23T13:39:32;4;3;
83484;PMS5003;73420;32.678;-85.380;2024-02-23T13:41:58;1;1;
83484;PMS5003;73420;32.678;-85.380;2024-02-23T13:44:23;3;3;
83484;PMS5003;73420;32.678;-85.380;2024-02-23T13:46:48;4;4;
83484;PMS5003;73420;32.678;-85.380;2024-02-23T13:49:14;2;2;
83484;PMS5003;73420;32.678;-85.380;2024-02-23T13:51:39;3;2;
83484;PMS5003;73420;32.678;-85.380;2024-02-23T13:54:05;3;2;
83484;PMS5003;73420;32.678;-85.380;2024-02-23T13:56:30;2;2;
83484;PMS5003;73420;32.678;-85.380;2024-02-23T13:58:55;2;2;
83484;PMS5003;73420;32.678;-85.380;2024-02-23T14:01:21;3;2;
83484;PMS5003;73420;32.678;-85.380;2024-02-23T14:03:46;3;3;
83484;PMS5003;73420;32.678;-85.380;2024-02-23T14:06:11;0;0;
83484;PMS5003;73420;32.678;-85.380;2024-02-23T14:08:37;2;2;
83484;PMS5003;73420;32.678;-85.380;2024-02-23T14:11:02;3;3;
83484;PMS5003;73420;32.678;-85.380;2024-02-23T14:13:28;4;3;
83484;PMS5003;73420;32.678;-85.380;2024-02-23T14:15:53;0;0;
83484;PMS5003;73420;32.678;-85.380;2024-02-23T14:18:18;0;0;
83484;PMS5003;73420;32.678;-85.380;2024-02-23T14:20:43;0;0;
83484;PMS5003;73420;32.678;-85.380;2024-02-23T14:23:09;1;1;
83484;PMS5003;73420;32.678;-85.380;2024-02-23T14:25:35;0;0;
83484;PMS5003;73420;32.678;-85.380;2024-02-23T14:28:00;2;2;
83484;PMS5003;73420;32.678;-85.380;2024-02-23T14:30:25;1;1;
83484;PMS5003;73420;32.678;-85.380;2024-02-23T14:32:50;1;1;
83484;PMS5003;73420;32.678;-85.380;2024-02-23T14:35:16;2;1;
83484;PMS5003;73420;32.678;-85.380;2024-02-23T14:37:46;1;1;
83484;PMS5003;73420;32.678;-85.380;2024-02-23T14:40:07;1;1;
83484;PMS5003;73420;32.678;-85.380;2024-02-23T14:42:32;2;2;
83484;PMS5003;73420;32.678;-85.380;2024-02-23T14:44:57;1;1;
83484;PMS5003;73420;32.678;-85.380;2024-02-23T14:47:22;1;1;
83484;PMS5003;73420;32.678;-85.380;2024-02-23T14:49:48;0;0;
83484;PMS5003;73420;32.678;-85.380;2024-02-23T14:52:14;2;2;
83484;PMS5003;73420;32.678;-85.380;2024-02-23T14:54:39;2;2;
83484;PMS5003;73420;32.678;-85.380;2024-02-23T14:57:04;1;1;
83484;PMS5003;73420;32.678;-85.380;2024-02-23T14:59:29;2;1;
83484;PMS5003;73420;32.678;-85.380;2024-02-23T15:01:58;3;2;
83484;PMS5003;73420;32.678;-85.380;2024-02-23T15:04:20;1;1;
83484;PMS5003;73420;32.678;-85.380;2024-02-23T15:06:46;2;2;
83484;PMS5003;73420;32.678;-85.380;2024-02-23T15:09:11;1;1;
83484;PMS5003;73420;32.678;-85.380;2024-02-23T15:11:36;2;2;
83484;PMS5003;73420;32.678;-85.380;2024-02-23T15:14:03;2;1;
83484;PMS5003;73420;32.678;-85.380;2024-02-23T15:16:27;3;3;
83484;PMS5003;73420;32.678;-85.380;2024-02-23T15:18:52;1;0;
83484;PMS5003;73420;32.678;-85.380;2024-02-23T15:21:18;0;0;
83484;PMS5003;73420;32.678;-85.380;2024-02-23T15:23:43;1;1;
83484;PMS5003;73420;32.678;-85.380;2024-02-23T15:26:09;1;1;
83484;PMS5003;73420;32.678;-85.380;2024-02-23T15:28:34;1;1;
83484;PMS5003;73420;32.678;-85.380;2024-02-23T15:30:59;1;1;
83484;PMS5003;73420;32.678;-85.380;2024-02-23T15:33:25;1;1;
83484;PMS5003;73420;32.678;-85.380;2024-02-23T15:35:50;4;4;
83484;PMS5003;73420;32.678;-85.380;2024-02-23T15:38:15;2;2;
83484;PMS5003;73420;32.678;-85.380;2024-02-23T15:40:41;2;2;
83484;PMS5003;73420;32.678;-85.380;2024-02-23T15:43:06;2;2;
83484;PMS5003;73420;32.678;-85.380;2024-02-23T15:45:31;1;1;
83484;PMS5003;73420;32.678;-85.380;2024-02-23T15:47:57;1;1;
83484;PMS5003;73420;32.678;-85.380;2024-02-23T15:50:24;1;0;